createdAt,value
2022-12-04T00:01:12.817Z,88.56
2022-12-04T00:05:17.310Z,88.44
2022-12-04T00:09:20.318Z,88.57
2022-12-04T00:13:23.312Z,88.48
2022-12-04T00:17:26.253Z,88.54
2022-12-04T00:21:30.664Z,88.66
2022-12-04T00:25:39.307Z,88.48
2022-12-04T00:29:44.034Z,88.57
2022-12-04T00:33:47.184Z,88.43
2022-12-04T00:37:51.542Z,88.47
2022-12-04T00:41:54.517Z,88.85
2022-12-04T00:45:57.605Z,88.63
2022-12-04T00:50:00.868Z,88.60
2022-12-04T00:54:05.504Z,88.71
2022-12-04T00:58:08.682Z,88.79
2022-12-04T01:02:11.630Z,89.04
2022-12-04T01:06:23.284Z,88.81
2022-12-04T01:10:27.661Z,88.44
2022-12-04T01:14:30.753Z,88.72
2022-12-04T01:18:33.795Z,88.57
2022-12-04T01:22:36.776Z,88.62
2022-12-04T01:26:41.199Z,88.79
2022-12-04T01:30:44.175Z,88.83
2022-12-04T01:34:47.378Z,88.83
2022-12-04T01:38:50.531Z,88.99
2022-12-04T01:42:55.165Z,88.62
2022-12-04T01:46:59.377Z,88.21
2022-12-04T01:51:08.389Z,88.05
2022-12-04T01:55:11.367Z,88.13
2022-12-04T01:59:18.619Z,88.34
2022-12-04T02:03:22.068Z,88.13
2022-12-04T02:07:25.270Z,88.23
2022-12-04T02:11:37.504Z,88.43
2022-12-04T02:15:49.416Z,88.30
2022-12-04T02:20:05.509Z,88.16
2022-12-04T02:24:28.961Z,88.02
2022-12-04T02:28:42.669Z,88.18
2022-12-04T02:32:49.657Z,88.21
2022-12-04T02:36:56.710Z,88.23
2022-12-04T02:41:04.949Z,87.97
2022-12-04T02:45:13.088Z,87.66
2022-12-04T02:49:20.415Z,87.56
2022-12-04T02:53:27.536Z,87.39
2022-12-04T02:57:37.030Z,87.48
2022-12-04T03:01:44.981Z,87.52
2022-12-04T03:05:54.735Z,87.88
2022-12-04T03:10:04.127Z,88.16
2022-12-04T03:14:15.525Z,87.98
2022-12-04T03:18:23.685Z,88.07
2022-12-04T03:22:28.703Z,87.82
2022-12-04T03:26:37.613Z,88.05
2022-12-04T03:30:45.527Z,87.82
2022-12-04T03:34:55.597Z,87.90
2022-12-04T03:39:04.592Z,87.90
2022-12-04T03:43:12.907Z,87.82
2022-12-04T03:47:21.621Z,88.17
2022-12-04T03:51:34.379Z,88.20
2022-12-04T03:55:42.625Z,87.97
2022-12-04T03:59:55.411Z,87.82
2022-12-04T04:04:01.726Z,87.90
2022-12-04T04:08:27.887Z,87.76
2022-12-04T04:12:36.662Z,87.58
2022-12-04T04:17:01.696Z,87.74
2022-12-04T04:21:22.543Z,87.45
2022-12-04T04:25:29.623Z,87.72
2022-12-04T04:29:32.877Z,87.77
2022-12-04T04:33:40.884Z,87.71
2022-12-04T04:37:54.864Z,87.53
2022-12-04T04:42:04.379Z,87.37
2022-12-04T04:46:12.498Z,87.21
2022-12-04T04:50:18.110Z,86.99
2022-12-04T04:54:22.166Z,86.81
2022-12-04T04:58:26.577Z,86.87
2022-12-04T05:02:29.986Z,87.00
2022-12-04T05:06:33.101Z,86.99
2022-12-04T05:10:36.101Z,86.77
2022-12-04T05:14:40.470Z,86.75
2022-12-04T05:19:04.390Z,86.78
2022-12-04T05:23:08.309Z,86.59
2022-12-04T05:27:11.397Z,86.45
2022-12-04T05:31:15.848Z,86.56
2022-12-04T05:35:18.971Z,86.59
2022-12-04T05:39:22.472Z,86.60
2022-12-04T05:43:25.475Z,86.51
2022-12-04T05:47:29.862Z,86.57
2022-12-04T05:51:32.824Z,86.55
2022-12-04T05:55:36.174Z,86.54
2022-12-04T05:59:39.368Z,86.48
2022-12-04T06:03:43.998Z,86.51
2022-12-04T06:07:47.178Z,86.52
2022-12-04T06:11:50.379Z,86.81
2022-12-04T06:15:53.472Z,86.87
2022-12-04T06:19:58.285Z,86.83
2022-12-04T06:24:02.133Z,86.79
2022-12-04T06:28:05.163Z,87.10
2022-12-04T06:32:08.262Z,87.01
2022-12-04T06:36:14.441Z,87.34
2022-12-04T06:40:17.484Z,86.99
2022-12-04T06:44:20.518Z,86.87
2022-12-04T06:48:23.605Z,87.15
2022-12-04T06:52:27.980Z,87.51
2022-12-04T06:56:33.595Z,87.20
2022-12-04T07:00:37.039Z,87.44
2022-12-04T07:04:40.269Z,87.61
2022-12-04T07:08:46.154Z,87.96
2022-12-04T07:12:49.117Z,87.83
2022-12-04T07:16:52.136Z,87.44
2022-12-04T07:20:55.176Z,87.68
2022-12-04T07:24:59.535Z,87.80
2022-12-04T07:29:07.662Z,87.88
2022-12-04T07:33:20.118Z,87.61
2022-12-04T07:37:27.800Z,88.08
2022-12-04T07:41:32.079Z,87.81
2022-12-04T07:45:46.574Z,87.62
2022-12-04T07:49:49.627Z,87.50
2022-12-04T07:53:54.067Z,87.36
2022-12-04T07:57:58.418Z,87.43
2022-12-04T08:02:01.461Z,87.40
2022-12-04T08:06:05.880Z,87.23
2022-12-04T08:10:10.085Z,87.07
2022-12-04T08:14:14.904Z,87.15
2022-12-04T08:18:18.025Z,87.26
2022-12-04T08:22:25.064Z,87.56
2022-12-04T08:26:30.536Z,87.40
2022-12-04T08:30:36.041Z,87.46
2022-12-04T08:34:39.081Z,87.17
2022-12-04T08:38:42.545Z,86.96
2022-12-04T08:42:45.507Z,87.21
2022-12-04T08:46:49.967Z,87.17
2022-12-04T08:50:53.379Z,87.25
2022-12-04T08:54:56.362Z,87.43
2022-12-04T08:59:01.239Z,87.64
2022-12-04T09:03:05.788Z,87.35
2022-12-04T09:07:08.764Z,87.51
2022-12-04T09:11:14.713Z,87.13
2022-12-04T09:15:18.420Z,87.34
2022-12-04T09:19:23.064Z,86.98
2022-12-04T09:23:26.830Z,86.87
2022-12-04T09:27:29.856Z,86.54
2022-12-04T09:31:34.038Z,86.20
2022-12-04T09:35:39.677Z,86.33
2022-12-04T09:39:42.669Z,86.36
2022-12-04T09:43:53.413Z,86.36
2022-12-04T09:47:59.521Z,85.99
2022-12-04T09:52:10.669Z,85.95
2022-12-04T09:56:19.913Z,85.87
2022-12-04T10:00:23.547Z,85.60
2022-12-04T10:04:26.821Z,85.75
2022-12-04T10:08:35.961Z,85.79
2022-12-04T10:12:51.450Z,85.43
2022-12-04T10:17:14.634Z,85.69
2022-12-04T10:21:33.858Z,85.46
2022-12-04T10:25:40.142Z,85.75
2022-12-04T10:29:44.801Z,85.89
2022-12-04T10:33:52.007Z,85.93
2022-12-04T10:37:58.755Z,85.73
2022-12-04T10:42:12.505Z,85.74
2022-12-04T10:46:17.815Z,85.59
2022-12-04T10:50:22.972Z,85.61
2022-12-04T10:54:32.737Z,85.45
2022-12-04T10:58:37.151Z,85.06
2022-12-04T11:02:40.832Z,85.04
2022-12-04T11:06:44.161Z,85.15
2022-12-04T11:10:47.201Z,85.31
2022-12-04T11:15:01.155Z,85.24
2022-12-04T11:19:04.622Z,85.23
2022-12-04T11:23:07.670Z,85.18
2022-12-04T11:27:20.866Z,85.70
2022-12-04T11:31:25.674Z,85.49
2022-12-04T11:35:30.965Z,85.64
2022-12-04T11:39:37.994Z,85.58
2022-12-04T11:43:51.404Z,85.17
2022-12-04T11:48:00.438Z,85.21
2022-12-04T11:52:23.580Z,85.14
2022-12-04T11:56:32.736Z,84.95
2022-12-04T12:00:40.635Z,85.11
2022-12-04T12:05:03.980Z,85.02
2022-12-04T12:09:23.662Z,84.83
2022-12-04T12:13:36.618Z,84.64
2022-12-04T12:17:47.198Z,84.92
2022-12-04T12:22:05.165Z,84.99
2022-12-04T12:26:12.284Z,84.87
2022-12-04T12:30:19.173Z,84.87
2022-12-04T12:34:36.235Z,84.93
2022-12-04T12:38:45.448Z,85.00
2022-12-04T12:42:58.202Z,85.47
2022-12-04T12:47:08.113Z,85.17
2022-12-04T12:51:30.034Z,84.58
2022-12-04T12:55:40.360Z,84.75
2022-12-04T12:59:49.354Z,84.10
2022-12-04T13:03:59.808Z,84.20
2022-12-04T13:08:15.947Z,84.34
2022-12-04T13:12:23.711Z,83.85
2022-12-04T13:16:31.196Z,83.39
2022-12-04T13:20:40.343Z,83.46
2022-12-04T13:24:55.341Z,83.42
2022-12-04T13:29:10.091Z,83.23
2022-12-04T13:34:04.463Z,83.47
2022-12-04T13:38:20.822Z,83.50
2022-12-04T13:42:27.052Z,83.53
2022-12-04T13:46:35.853Z,83.52
2022-12-04T13:50:41.557Z,83.25
2022-12-04T13:54:44.975Z,83.49
2022-12-04T13:58:47.961Z,83.60
2022-12-04T14:02:55.633Z,83.30
2022-12-04T14:07:01.639Z,83.45
2022-12-04T14:11:08.250Z,83.41
2022-12-04T14:15:23.319Z,82.90
2022-12-04T14:19:35.646Z,83.11
2022-12-04T14:23:41.303Z,83.20
2022-12-04T14:27:45.557Z,83.35
2022-12-04T14:31:48.531Z,83.05
2022-12-04T14:36:00.732Z,83.03
2022-12-04T14:40:07.305Z,83.06
2022-12-04T14:44:25.368Z,82.93
2022-12-04T14:48:41.842Z,83.01
2022-12-04T14:52:54.193Z,82.65
2022-12-04T14:57:12.901Z,82.59
2022-12-04T15:01:28.656Z,82.45
2022-12-04T15:05:34.249Z,82.29
2022-12-04T15:09:56.292Z,82.17
2022-12-04T15:14:12.714Z,82.20
2022-12-04T15:18:17.928Z,82.22
2022-12-04T15:22:24.815Z,82.08
2022-12-04T15:26:29.579Z,82.43
2022-12-04T15:30:35.598Z,82.46
2022-12-04T15:34:43.049Z,82.66
2022-12-04T15:38:47.968Z,83.18
2022-12-04T15:42:53.114Z,83.43
2022-12-04T15:46:57.782Z,83.55
2022-12-04T15:51:05.058Z,83.40
2022-12-04T15:55:10.131Z,83.86
2022-12-04T15:59:19.145Z,84.06
2022-12-04T16:03:26.575Z,84.17
2022-12-04T16:07:30.906Z,84.36
2022-12-04T16:11:37.443Z,84.57
2022-12-04T16:15:43.956Z,84.77
2022-12-04T16:19:47.259Z,85.91
2022-12-04T16:23:50.969Z,85.44
2022-12-04T16:27:53.949Z,85.07
2022-12-04T16:32:02.893Z,85.01
2022-12-04T16:36:07.288Z,85.36
2022-12-04T16:40:12.008Z,85.34
2022-12-04T16:44:16.809Z,85.32
2022-12-04T16:48:21.466Z,85.56
2022-12-04T16:52:24.524Z,85.71
2022-12-04T16:56:27.517Z,85.46
2022-12-04T17:00:30.620Z,85.48
2022-12-04T17:04:35.076Z,85.52
2022-12-04T17:08:38.134Z,85.58
2022-12-04T17:12:41.414Z,85.30
2022-12-04T17:16:46.698Z,85.17
2022-12-04T17:20:51.132Z,85.40
2022-12-04T17:24:56.217Z,85.28
2022-12-04T17:28:59.486Z,85.25
2022-12-04T17:33:02.696Z,85.30
2022-12-04T17:37:07.077Z,85.14
2022-12-04T17:41:13.685Z,85.06
2022-12-04T17:45:17.096Z,85.13
2022-12-04T17:49:20.378Z,85.15
2022-12-04T17:53:24.815Z,85.13
2022-12-04T17:57:28.767Z,85.39
2022-12-04T18:01:32.486Z,85.05
2022-12-04T18:05:35.752Z,85.48
2022-12-04T18:09:40.394Z,85.28
2022-12-04T18:13:43.751Z,85.26
2022-12-04T18:17:46.796Z,85.28
2022-12-04T18:21:50.178Z,85.14
2022-12-04T18:25:57.423Z,85.01
2022-12-04T18:30:01.578Z,85.18
2022-12-04T18:34:06.501Z,85.18
2022-12-04T18:38:13.767Z,85.15
2022-12-04T18:42:18.247Z,84.93
2022-12-04T18:46:22.401Z,84.99
2022-12-04T18:50:25.443Z,85.16
2022-12-04T18:54:28.496Z,85.15
2022-12-04T18:58:32.915Z,85.22
2022-12-04T19:02:36.107Z,85.22
2022-12-04T19:06:40.820Z,84.98
2022-12-04T19:10:43.878Z,85.27
2022-12-04T19:14:48.267Z,85.36
2022-12-04T19:18:51.371Z,85.34
2022-12-04T19:22:54.931Z,85.38
2022-12-04T19:26:57.925Z,85.71
2022-12-04T19:31:02.257Z,85.70
2022-12-04T19:35:05.779Z,85.91
2022-12-04T19:39:09.705Z,86.04
2022-12-04T19:43:13.944Z,85.86
2022-12-04T19:47:19.360Z,85.97
2022-12-04T19:51:22.919Z,86.07
2022-12-04T19:55:25.905Z,86.04
2022-12-04T19:59:34.613Z,86.09
2022-12-04T20:03:41.646Z,85.99
2022-12-04T20:07:44.658Z,86.33
2022-12-04T20:11:48.029Z,86.32
2022-12-04T20:15:51.337Z,86.05
2022-12-04T20:19:56.380Z,86.46
2022-12-04T20:24:02.216Z,86.18
2022-12-04T20:28:08.990Z,86.47
2022-12-04T20:32:14.398Z,86.72
2022-12-04T20:36:21.298Z,86.79
2022-12-04T20:40:24.623Z,87.14
2022-12-04T20:44:27.821Z,87.27
2022-12-04T20:48:30.729Z,87.82
2022-12-04T20:52:35.241Z,88.11
2022-12-04T20:56:39.459Z,87.92
2022-12-04T21:00:42.559Z,87.83
2022-12-04T21:04:45.675Z,88.17
2022-12-04T21:08:55.802Z,88.52
2022-12-04T21:13:16.729Z,88.76
2022-12-04T21:17:21.193Z,88.64
2022-12-04T21:21:24.377Z,88.73
2022-12-04T21:25:28.687Z,88.61
2022-12-04T21:29:33.174Z,88.76
2022-12-04T21:33:40.948Z,89.45
2022-12-04T21:37:44.355Z,89.68
2022-12-04T21:42:06.655Z,89.59
2022-12-04T21:46:10.323Z,89.41
2022-12-04T21:50:13.294Z,89.64
2022-12-04T21:54:16.194Z,89.73
2022-12-04T21:58:21.399Z,89.50
2022-12-04T22:02:25.690Z,89.49
2022-12-04T22:06:28.853Z,89.63
2022-12-04T22:10:31.787Z,89.56
2022-12-04T22:14:36.257Z,89.42
2022-12-04T22:18:39.841Z,89.79
2022-12-04T22:22:42.810Z,89.73
2022-12-04T22:26:45.745Z,89.61
2022-12-04T22:30:50.132Z,89.86
2022-12-04T22:34:53.093Z,89.94
2022-12-04T22:39:09.510Z,89.58
2022-12-04T22:43:13.288Z,89.52
2022-12-04T22:47:17.637Z,89.62
2022-12-04T22:51:22.182Z,89.81
2022-12-04T22:55:25.435Z,89.66
2022-12-04T22:59:28.586Z,89.77
2022-12-04T23:03:33.009Z,89.78
2022-12-04T23:07:36.858Z,89.52
2022-12-04T23:11:40.915Z,89.83
2022-12-04T23:15:43.902Z,89.80
2022-12-04T23:19:48.389Z,89.68
2022-12-04T23:23:53.830Z,89.70
2022-12-04T23:27:56.714Z,89.89
2022-12-04T23:31:59.698Z,89.82
2022-12-04T23:36:06.219Z,89.84
2022-12-04T23:40:10.148Z,90.05
2022-12-04T23:44:13.055Z,90.02
2022-12-04T23:48:15.950Z,90.02
2022-12-04T23:52:20.402Z,89.84
2022-12-04T23:56:25.045Z,89.86
